createdAt,value
2023-04-28T00:01:14.794Z,11.30
2023-04-28T00:03:42.477Z,11.30
2023-04-28T00:06:11.464Z,11.40
2023-04-28T00:08:38.821Z,11.30
2023-04-28T00:11:10.208Z,11.30
2023-04-28T00:13:38.580Z,11.30
2023-04-28T00:16:06.381Z,11.30
2023-04-28T00:18:33.834Z,11.30
2023-04-28T00:21:02.155Z,11.30
2023-04-28T00:23:29.486Z,11.30
2023-04-28T00:25:57.607Z,11.30
2023-04-28T00:28:34.203Z,11.30
2023-04-28T00:31:02.783Z,11.30
2023-04-28T00:33:30.163Z,11.30
2023-04-28T00:36:01.436Z,11.30
2023-04-28T00:38:29.173Z,11.40
2023-04-28T00:40:56.603Z,11.30
2023-04-28T00:43:23.994Z,11.40
2023-04-28T00:45:52.131Z,11.20
2023-04-28T00:48:19.672Z,11.40
2023-04-28T00:50:48.473Z,11.50
2023-04-28T00:53:16.068Z,11.40
2023-04-28T00:55:43.481Z,11.40
2023-04-28T00:58:10.874Z,11.40
2023-04-28T01:00:38.192Z,11.40
2023-04-28T01:03:05.967Z,11.40
2023-04-28T01:05:34.772Z,11.40
2023-04-28T01:08:03.147Z,11.40
2023-04-28T01:10:30.812Z,11.40
2023-04-28T01:12:58.292Z,11.40
2023-04-28T01:15:26.400Z,11.40
2023-04-28T01:17:53.812Z,11.50
2023-04-28T01:20:21.284Z,11.50
2023-04-28T01:22:48.718Z,10.90
2023-04-28T01:25:16.027Z,11.40
2023-04-28T01:27:43.739Z,11.40
2023-04-28T01:30:11.665Z,11.40
2023-04-28T01:32:39.058Z,11.90
2023-04-28T01:35:06.797Z,11.50
2023-04-28T01:37:34.150Z,11.50
2023-04-28T01:40:01.481Z,11.50
2023-04-28T01:42:28.861Z,11.50
2023-04-28T01:44:56.420Z,11.50
2023-04-28T01:47:23.992Z,11.50
2023-04-28T01:49:51.397Z,11.50
2023-04-28T01:52:19.987Z,11.50
2023-04-28T01:54:47.439Z,11.50
2023-04-28T01:57:16.079Z,11.50
2023-04-28T01:59:44.791Z,11.60
2023-04-28T02:02:12.345Z,11.50
2023-04-28T02:04:39.844Z,11.50
2023-04-28T02:07:07.633Z,11.50
2023-04-28T02:09:34.975Z,11.60
2023-04-28T02:12:02.514Z,11.60
2023-04-28T02:14:32.472Z,11.60
2023-04-28T02:16:59.882Z,11.60
2023-04-28T02:19:27.184Z,11.60
2023-04-28T02:21:54.669Z,11.60
2023-04-28T02:24:22.084Z,11.60
2023-04-28T02:26:49.377Z,11.60
2023-04-28T02:29:16.878Z,11.70
2023-04-28T02:31:44.244Z,11.70
2023-04-28T02:34:11.592Z,11.70
2023-04-28T02:36:39.734Z,11.70
2023-04-28T02:39:07.203Z,11.40
2023-04-28T02:41:34.783Z,11.50
2023-04-28T02:44:02.815Z,11.80
2023-04-28T02:46:30.203Z,11.80
2023-04-28T02:48:57.647Z,11.80
2023-04-28T02:51:25.176Z,11.90
2023-04-28T02:53:52.689Z,11.90
2023-04-28T02:56:20.012Z,11.90
2023-04-28T02:58:47.441Z,11.90
2023-04-28T03:01:14.904Z,12.00
2023-04-28T03:03:42.547Z,11.80
2023-04-28T03:06:10.123Z,11.90
2023-04-28T03:08:37.460Z,11.90
2023-04-28T03:11:05.221Z,11.90
2023-04-28T03:13:32.782Z,11.90
2023-04-28T03:16:00.324Z,12.00
2023-04-28T03:18:27.795Z,12.00
2023-04-28T03:20:55.148Z,12.00
2023-04-28T03:23:22.552Z,12.00
2023-04-28T03:25:49.913Z,11.70
2023-04-28T03:28:17.314Z,12.00
2023-04-28T03:30:44.616Z,12.00
2023-04-28T03:33:11.961Z,12.00
2023-04-28T03:35:39.364Z,11.80
2023-04-28T03:38:07.111Z,12.10
2023-04-28T03:40:34.416Z,12.10
2023-04-28T03:43:04.019Z,12.00
2023-04-28T03:45:32.098Z,12.10
2023-04-28T03:47:59.582Z,12.00
2023-04-28T03:50:27.079Z,12.10
2023-04-28T03:52:54.494Z,12.10
2023-04-28T03:55:21.904Z,12.10
2023-04-28T03:57:49.311Z,13.60
2023-04-28T04:00:16.903Z,12.00
2023-04-28T04:02:44.353Z,12.10
2023-04-28T04:05:11.992Z,12.10
2023-04-28T04:07:39.305Z,12.10
2023-04-28T04:10:07.192Z,12.10
2023-04-28T04:12:34.851Z,12.10
2023-04-28T04:15:02.247Z,12.10
2023-04-28T04:17:29.669Z,11.50
2023-04-28T04:19:56.974Z,12.10
2023-04-28T04:22:24.363Z,12.20
2023-04-28T04:24:51.851Z,12.20
2023-04-28T04:27:19.350Z,12.10
2023-04-28T04:29:46.686Z,12.10
2023-04-28T04:32:14.001Z,12.00
2023-04-28T04:34:41.404Z,12.10
2023-04-28T04:37:10.240Z,12.00
2023-04-28T04:39:37.633Z,11.70
2023-04-28T04:42:16.798Z,12.10
2023-04-28T04:44:51.101Z,12.10
2023-04-28T04:47:19.153Z,12.10
2023-04-28T04:49:46.562Z,12.10
2023-04-28T04:52:13.918Z,12.10
2023-04-28T04:54:41.520Z,12.10
2023-04-28T04:57:09.416Z,13.50
2023-04-28T04:59:36.865Z,12.10
2023-04-28T05:02:04.300Z,12.00
2023-04-28T05:04:31.929Z,12.10
2023-04-28T05:06:59.388Z,12.10
2023-04-28T05:09:26.989Z,12.00
2023-04-28T05:11:54.319Z,12.00
2023-04-28T05:14:21.682Z,12.40
2023-04-28T05:16:49.310Z,12.00
2023-04-28T05:19:16.893Z,12.00
2023-04-28T05:21:44.291Z,12.10
2023-04-28T05:24:11.709Z,12.10
2023-04-28T05:26:39.177Z,12.10
2023-04-28T05:29:06.981Z,12.10
2023-04-28T05:31:34.276Z,12.10
2023-04-28T05:34:01.863Z,12.10
2023-04-28T05:36:29.270Z,12.10
2023-04-28T05:38:56.559Z,12.10
2023-04-28T05:41:23.972Z,12.20
2023-04-28T05:43:51.418Z,12.20
2023-04-28T05:46:30.167Z,12.20
2023-04-28T05:48:58.705Z,12.20
2023-04-28T05:51:27.216Z,12.20
2023-04-28T05:53:54.547Z,12.20
2023-04-28T05:56:21.906Z,12.20
2023-04-28T05:58:50.790Z,12.20
2023-04-28T06:01:18.432Z,11.60
2023-04-28T06:03:45.836Z,12.20
2023-04-28T06:06:13.733Z,12.30
2023-04-28T06:08:41.369Z,12.30
2023-04-28T06:11:08.715Z,12.30
2023-04-28T06:13:36.629Z,12.40
2023-04-28T06:16:04.412Z,12.40
2023-04-28T06:18:33.053Z,12.50
2023-04-28T06:21:00.447Z,12.60
2023-04-28T06:23:27.836Z,12.60
2023-04-28T06:25:55.202Z,12.70
2023-04-28T06:28:22.685Z,12.70
2023-04-28T06:30:50.182Z,12.80
2023-04-28T06:33:17.502Z,12.90
2023-04-28T06:35:44.964Z,12.90
2023-04-28T06:38:12.671Z,12.90
2023-04-28T06:40:40.871Z,13.30
2023-04-28T06:43:08.278Z,12.80
2023-04-28T06:45:35.658Z,14.00
2023-04-28T06:48:03.156Z,12.90
2023-04-28T06:50:30.553Z,12.90
2023-04-28T06:52:58.925Z,12.90
2023-04-28T06:55:27.130Z,13.00
2023-04-28T06:57:54.654Z,12.90
2023-04-28T07:00:22.212Z,13.00
2023-04-28T07:02:49.698Z,13.00
2023-04-28T07:05:17.360Z,13.00
2023-04-28T07:07:45.590Z,13.40
2023-04-28T07:10:13.495Z,13.00
2023-04-28T07:12:43.454Z,13.00
2023-04-28T07:15:11.347Z,13.00
2023-04-28T07:17:39.036Z,13.00
2023-04-28T07:20:07.437Z,13.00
2023-04-28T07:22:35.093Z,13.10
2023-04-28T07:25:02.507Z,13.20
2023-04-28T07:27:29.803Z,13.30
2023-04-28T07:29:57.178Z,13.30
2023-04-28T07:32:24.683Z,13.30
2023-04-28T07:34:52.077Z,13.00
2023-04-28T07:37:19.735Z,13.30
2023-04-28T07:39:47.474Z,13.40
2023-04-28T07:42:14.739Z,13.40
2023-04-28T07:44:42.433Z,13.40
2023-04-28T07:47:09.850Z,13.40
2023-04-28T07:49:37.584Z,13.60
2023-04-28T07:52:05.214Z,13.50
2023-04-28T07:54:32.809Z,13.50
2023-04-28T07:57:01.404Z,13.50
2023-04-28T07:59:28.796Z,13.60
2023-04-28T08:01:56.316Z,13.60
2023-04-28T08:04:23.954Z,13.60
2023-04-28T08:06:51.642Z,13.60
2023-04-28T08:09:18.996Z,13.60
2023-04-28T08:11:46.373Z,13.70
2023-04-28T08:14:14.148Z,13.70
2023-04-28T08:16:41.747Z,13.70
2023-04-28T08:19:09.186Z,13.70
2023-04-28T08:21:36.665Z,13.70
2023-04-28T08:24:04.169Z,13.70
2023-04-28T08:26:31.497Z,13.70
2023-04-28T08:28:58.772Z,13.70
2023-04-28T08:31:26.158Z,13.80
2023-04-28T08:33:55.285Z,14.50
2023-04-28T08:36:25.130Z,13.90
2023-04-28T08:38:52.858Z,14.00
2023-04-28T08:41:21.908Z,14.00
2023-04-28T08:43:49.740Z,14.20
2023-04-28T08:46:21.523Z,14.10
2023-04-28T08:48:50.247Z,14.10
2023-04-28T08:51:33.582Z,14.10
2023-04-28T08:56:39.030Z,14.30
2023-04-28T08:59:06.867Z,14.20
2023-04-28T09:01:34.761Z,14.20
2023-04-28T09:04:03.469Z,14.20
2023-04-28T09:06:38.696Z,14.30
2023-04-28T09:09:20.087Z,14.20
2023-04-28T09:12:01.335Z,14.30
2023-04-28T09:14:30.021Z,14.30
2023-04-28T09:16:57.619Z,14.40
2023-04-28T09:19:25.453Z,14.40
2023-04-28T09:21:57.197Z,14.50
2023-04-28T09:24:29.163Z,14.60
2023-04-28T09:26:56.823Z,14.60
2023-04-28T09:29:24.388Z,14.70
2023-04-28T09:31:52.125Z,14.70
2023-04-28T09:34:19.938Z,14.70
2023-04-28T09:36:47.377Z,14.80
2023-04-28T09:39:14.861Z,14.80
2023-04-28T09:41:44.038Z,14.80
2023-04-28T09:44:21.457Z,14.90
2023-04-28T09:46:48.821Z,14.90
2023-04-28T09:49:16.200Z,14.90
2023-04-28T09:51:43.578Z,14.80
2023-04-28T09:54:12.835Z,14.80
2023-04-28T09:56:44.163Z,14.80
2023-04-28T09:59:11.587Z,14.70
2023-04-28T10:01:41.305Z,14.70
2023-04-28T10:04:09.895Z,14.60
2023-04-28T10:06:37.378Z,14.70
2023-04-28T10:09:05.928Z,14.70
2023-04-28T10:11:34.144Z,14.90
2023-04-28T10:14:01.719Z,14.80
2023-04-28T10:16:32.064Z,14.80
2023-04-28T10:19:02.130Z,14.90
2023-04-28T10:21:33.420Z,14.90
2023-04-28T10:24:05.848Z,14.90
2023-04-28T10:27:07.021Z,14.60
2023-04-28T10:29:35.137Z,15.50
2023-04-28T10:32:19.225Z,14.90
2023-04-28T10:34:47.364Z,14.90
2023-04-28T10:37:15.715Z,15.00
2023-04-28T10:40:22.387Z,15.50
2023-04-28T10:42:56.870Z,15.00
2023-04-28T10:45:49.382Z,15.10
2023-04-28T10:48:17.179Z,15.00
2023-04-28T10:51:06.033Z,15.10
2023-04-28T10:53:45.814Z,14.90
2023-04-28T10:56:19.348Z,14.90
2023-04-28T10:58:50.769Z,14.80
2023-04-28T11:01:25.733Z,14.80
2023-04-28T11:04:14.193Z,14.70
2023-04-28T11:06:43.380Z,14.70
2023-04-28T11:09:19.417Z,14.70
2023-04-28T11:12:10.959Z,14.70
2023-04-28T11:14:40.960Z,14.60
2023-04-28T11:17:11.415Z,14.60
2023-04-28T11:19:46.260Z,14.60
2023-04-28T11:22:19.466Z,14.60
2023-04-28T11:25:01.055Z,14.60
2023-04-28T11:27:30.375Z,14.70
2023-04-28T11:29:58.405Z,14.70
2023-04-28T11:32:31.619Z,14.70
2023-04-28T11:34:59.637Z,15.10
2023-04-28T11:37:27.382Z,14.80
2023-04-28T11:39:55.081Z,14.60
2023-04-28T11:42:22.528Z,14.90
2023-04-28T11:44:54.044Z,15.00
2023-04-28T11:47:34.629Z,16.20
2023-04-28T11:50:03.384Z,15.20
2023-04-28T11:52:30.918Z,15.20
2023-04-28T11:55:01.106Z,15.30
2023-04-28T11:57:28.800Z,15.30
2023-04-28T12:00:14.654Z,15.30
2023-04-28T12:02:42.393Z,15.20
2023-04-28T12:05:11.088Z,15.10
2023-04-28T12:07:43.712Z,15.10
2023-04-28T12:10:17.063Z,15.10
2023-04-28T12:12:51.931Z,14.90
2023-04-28T12:15:22.715Z,15.90
2023-04-28T12:17:51.250Z,15.10
2023-04-28T12:20:39.555Z,15.20
2023-04-28T12:23:08.038Z,15.40
2023-04-28T12:25:44.837Z,15.50
2023-04-28T12:28:12.105Z,15.70
2023-04-28T12:30:41.963Z,15.90
2023-04-28T12:33:42.366Z,16.00
2023-04-28T12:36:10.130Z,16.10
2023-04-28T12:38:49.156Z,16.10
2023-04-28T12:41:16.632Z,16.20
2023-04-28T12:43:45.094Z,16.00
2023-04-28T12:46:15.075Z,15.90
2023-04-28T12:48:42.687Z,15.80
2023-04-28T12:51:10.161Z,15.80
2023-04-28T12:53:37.501Z,15.80
2023-04-28T12:56:06.506Z,15.70
2023-04-28T12:58:33.865Z,15.70
2023-04-28T13:01:01.633Z,15.70
2023-04-28T13:03:29.900Z,15.60
2023-04-28T13:05:57.397Z,15.60
2023-04-28T13:08:24.733Z,15.60
2023-04-28T13:10:52.223Z,15.60
2023-04-28T13:13:19.561Z,15.60
2023-04-28T13:15:47.187Z,15.60
2023-04-28T13:18:14.717Z,15.60
2023-04-28T13:20:42.640Z,15.70
2023-04-28T13:23:10.046Z,15.90
2023-04-28T13:25:37.597Z,15.80
2023-04-28T13:28:05.284Z,15.90
2023-04-28T13:30:34.333Z,15.90
2023-04-28T13:33:01.797Z,16.00
2023-04-28T13:35:29.517Z,16.00
2023-04-28T13:38:01.918Z,16.10
2023-04-28T13:40:29.395Z,16.10
2023-04-28T13:42:57.446Z,16.20
2023-04-28T13:45:26.512Z,16.10
2023-04-28T13:47:55.123Z,16.10
2023-04-28T13:50:22.478Z,16.10
2023-04-28T13:52:49.829Z,16.10
2023-04-28T13:55:17.398Z,16.10
2023-04-28T13:57:44.715Z,16.10
2023-04-28T14:00:12.792Z,16.20
2023-04-28T14:02:40.399Z,16.20
2023-04-28T14:05:08.295Z,16.30
2023-04-28T14:07:35.950Z,16.30
2023-04-28T14:10:04.597Z,16.30
2023-04-28T14:12:31.928Z,16.40
2023-04-28T14:14:59.311Z,16.40
2023-04-28T14:17:28.560Z,16.40
2023-04-28T14:19:56.315Z,16.40
2023-04-28T14:22:23.905Z,16.40
2023-04-28T14:24:51.327Z,16.30
2023-04-28T14:27:18.740Z,16.40
2023-04-28T14:29:48.394Z,16.40
2023-04-28T14:32:16.677Z,16.50
2023-04-28T14:34:45.005Z,16.70
2023-04-28T14:37:12.910Z,16.60
2023-04-28T14:39:40.634Z,16.60
2023-04-28T14:42:10.507Z,16.60
2023-04-28T14:44:38.478Z,16.60
2023-04-28T14:47:06.027Z,16.60
2023-04-28T14:49:34.390Z,16.50
2023-04-28T14:52:01.976Z,16.50
2023-04-28T14:54:29.379Z,16.60
2023-04-28T14:56:56.773Z,16.60
2023-04-28T14:59:26.362Z,16.60
2023-04-28T15:01:53.713Z,16.60
2023-04-28T15:04:22.023Z,16.70
2023-04-28T15:06:49.606Z,16.70
2023-04-28T15:09:16.921Z,16.70
2023-04-28T15:11:44.231Z,16.80
2023-04-28T15:14:11.551Z,16.80
2023-04-28T15:16:39.195Z,16.70
2023-04-28T15:19:06.633Z,16.50
2023-04-28T15:21:34.546Z,16.70
2023-04-28T15:24:01.998Z,16.60
2023-04-28T15:26:30.135Z,16.50
2023-04-28T15:28:57.878Z,16.40
2023-04-28T15:31:25.962Z,16.00
2023-04-28T15:33:54.978Z,16.30
2023-04-28T15:36:23.580Z,16.20
2023-04-28T15:38:52.930Z,16.20
2023-04-28T15:41:20.858Z,16.30
2023-04-28T15:43:51.003Z,16.50
2023-04-28T15:46:18.515Z,16.50
2023-04-28T15:48:46.271Z,16.60
2023-04-28T15:51:13.692Z,16.50
2023-04-28T15:53:41.807Z,16.60
2023-04-28T15:56:09.181Z,16.60
2023-04-28T15:58:37.029Z,16.60
2023-04-28T16:01:05.322Z,16.50
2023-04-28T16:03:33.649Z,16.50
2023-04-28T16:06:01.387Z,16.40
2023-04-28T16:08:29.413Z,16.40
2023-04-28T16:10:56.898Z,16.40
2023-04-28T16:13:24.276Z,16.30
2023-04-28T16:15:52.492Z,16.40
2023-04-28T16:18:19.971Z,16.30
2023-04-28T16:20:48.542Z,16.40
2023-04-28T16:23:16.121Z,16.40
2023-04-28T16:25:43.662Z,16.40
2023-04-28T16:28:11.377Z,16.50
2023-04-28T16:30:39.746Z,16.50
2023-04-28T16:33:08.668Z,16.50
2023-04-28T16:35:36.868Z,16.40
2023-04-28T16:38:04.316Z,16.40
2023-04-28T16:40:32.036Z,16.40
2023-04-28T16:42:59.372Z,16.30
2023-04-28T16:45:27.184Z,16.30
2023-04-28T16:47:54.600Z,16.30
2023-04-28T16:50:21.999Z,16.30
2023-04-28T16:52:49.545Z,16.30
2023-04-28T16:55:18.859Z,16.20
2023-04-28T16:57:46.830Z,16.20
2023-04-28T17:00:15.178Z,16.20
2023-04-28T17:02:42.822Z,16.20
2023-04-28T17:05:10.550Z,16.10
2023-04-28T17:07:37.937Z,16.20
2023-04-28T17:10:07.174Z,16.10
2023-04-28T17:12:34.571Z,16.20
2023-04-28T17:15:02.124Z,16.20
2023-04-28T17:17:29.896Z,16.20
2023-04-28T17:19:58.846Z,16.10
2023-04-28T17:22:26.368Z,16.10
2023-04-28T17:24:53.780Z,16.10
2023-04-28T17:27:21.458Z,16.10
2023-04-28T17:29:49.024Z,16.10
2023-04-28T17:32:16.541Z,16.10
2023-04-28T17:34:43.889Z,16.10
2023-04-28T17:37:11.332Z,16.10
2023-04-28T17:39:40.044Z,16.10
2023-04-28T17:42:07.524Z,16.10
2023-04-28T17:44:35.216Z,16.10
2023-04-28T17:47:02.789Z,16.10
2023-04-28T17:49:30.301Z,16.10
2023-04-28T17:51:57.689Z,16.20
2023-04-28T17:54:25.130Z,16.20
2023-04-28T17:56:53.300Z,16.10
2023-04-28T17:59:21.045Z,16.20
2023-04-28T18:02:05.630Z,16.20
2023-04-28T18:04:33.289Z,16.00
2023-04-28T18:07:02.307Z,16.10
2023-04-28T18:09:31.830Z,16.10
2023-04-28T18:12:01.694Z,16.10
2023-04-28T18:14:29.277Z,16.10
2023-04-28T18:16:58.124Z,16.10
2023-04-28T18:19:30.578Z,16.10
2023-04-28T18:21:58.410Z,16.10
2023-04-28T18:24:26.001Z,15.90
2023-04-28T18:26:53.558Z,15.90
2023-04-28T18:29:22.062Z,15.80
2023-04-28T18:31:49.597Z,15.80
2023-04-28T18:34:17.972Z,15.70
2023-04-28T18:36:45.719Z,15.80
2023-04-28T18:39:13.069Z,15.70
2023-04-28T18:41:40.478Z,15.60
2023-04-28T18:44:07.930Z,15.70
2023-04-28T18:46:35.893Z,15.60
2023-04-28T18:49:03.735Z,15.60
2023-04-28T18:51:31.779Z,15.50
2023-04-28T18:53:59.751Z,15.40
2023-04-28T18:56:27.298Z,15.40
2023-04-28T18:58:54.909Z,15.30
2023-04-28T19:01:22.627Z,15.20
2023-04-28T19:03:50.390Z,15.10
2023-04-28T19:06:18.183Z,15.00
2023-04-28T19:08:45.860Z,15.00
2023-04-28T19:11:13.468Z,15.00
2023-04-28T19:13:44.487Z,14.90
2023-04-28T19:16:11.843Z,14.90
2023-04-28T19:18:39.991Z,14.80
2023-04-28T19:21:08.908Z,14.80
2023-04-28T19:23:36.259Z,14.70
2023-04-28T19:26:04.031Z,14.60
2023-04-28T19:28:31.695Z,14.60
2023-04-28T19:30:59.375Z,14.50
2023-04-28T19:33:28.415Z,14.50
2023-04-28T19:35:56.048Z,14.40
2023-04-28T19:38:23.955Z,14.30
2023-04-28T19:41:01.801Z,14.30
2023-04-28T19:43:30.012Z,14.20
2023-04-28T19:45:57.620Z,14.20
2023-04-28T19:48:26.315Z,14.10
2023-04-28T19:50:54.291Z,14.10
2023-04-28T19:53:21.975Z,14.00
2023-04-28T19:55:49.464Z,13.90
2023-04-28T19:58:18.715Z,13.90
2023-04-28T20:00:47.829Z,13.90
2023-04-28T20:03:15.416Z,13.80
2023-04-28T20:05:43.438Z,13.80
2023-04-28T20:08:12.512Z,13.80
2023-04-28T20:10:40.478Z,13.80
2023-04-28T20:13:08.965Z,13.70
2023-04-28T20:15:36.386Z,13.70
2023-04-28T20:18:03.858Z,13.60
2023-04-28T20:20:31.164Z,13.60
2023-04-28T20:22:58.670Z,13.50
2023-04-28T20:25:27.819Z,13.50
2023-04-28T20:27:55.352Z,13.40
2023-04-28T20:30:22.861Z,13.40
2023-04-28T20:32:50.383Z,13.40
2023-04-28T20:35:17.992Z,13.40
2023-04-28T20:37:45.376Z,13.30
2023-04-28T20:40:13.298Z,13.30
2023-04-28T20:42:40.836Z,13.30
2023-04-28T20:45:08.412Z,13.30
2023-04-28T20:47:36.491Z,13.30
2023-04-28T20:50:04.879Z,13.20
2023-04-28T20:52:32.450Z,13.20
2023-04-28T20:55:00.501Z,13.20
2023-04-28T20:57:27.914Z,13.20
2023-04-28T20:59:55.434Z,13.20
2023-04-28T21:02:24.318Z,13.10
2023-04-28T21:04:52.294Z,13.10
2023-04-28T21:07:19.745Z,13.00
2023-04-28T21:09:47.212Z,13.00
2023-04-28T21:12:14.740Z,13.00
2023-04-28T21:14:42.367Z,12.90
2023-04-28T21:17:10.022Z,13.00
2023-04-28T21:19:37.772Z,12.90
2023-04-28T21:22:05.262Z,12.90
2023-04-28T21:24:32.745Z,13.00
2023-04-28T21:27:00.067Z,12.80
2023-04-28T21:29:27.749Z,12.80
2023-04-28T21:31:55.250Z,12.70
2023-04-28T21:34:22.723Z,12.70
2023-04-28T21:36:50.169Z,12.60
2023-04-28T21:39:17.756Z,12.60
2023-04-28T21:41:45.074Z,12.60
2023-04-28T21:44:13.121Z,12.70
2023-04-28T21:46:40.895Z,12.70
2023-04-28T21:49:08.259Z,12.70
2023-04-28T21:51:37.487Z,12.60
2023-04-28T21:54:05.095Z,12.60
2023-04-28T21:56:32.956Z,12.50
2023-04-28T21:59:00.483Z,12.50
2023-04-28T22:01:28.397Z,12.40
2023-04-28T22:03:56.286Z,12.40
2023-04-28T22:06:23.858Z,12.30
2023-04-28T22:08:51.197Z,12.20
2023-04-28T22:11:18.663Z,12.50
2023-04-28T22:13:46.125Z,12.10
2023-04-28T22:16:13.919Z,12.00
2023-04-28T22:18:41.347Z,12.90
2023-04-28T22:21:09.440Z,11.90
2023-04-28T22:23:36.869Z,11.90
2023-04-28T22:26:04.812Z,11.80
2023-04-28T22:28:32.668Z,11.70
2023-04-28T22:30:59.966Z,11.60
2023-04-28T22:33:27.540Z,11.60
2023-04-28T22:35:54.901Z,11.60
2023-04-28T22:38:22.223Z,11.50
2023-04-28T22:40:49.592Z,11.50
2023-04-28T22:43:16.929Z,11.50
2023-04-28T22:45:45.923Z,11.40
2023-04-28T22:48:13.969Z,11.40
2023-04-28T22:50:41.348Z,11.40
2023-04-28T22:53:09.438Z,11.30
2023-04-28T22:55:36.788Z,11.30
2023-04-28T22:58:04.087Z,11.30
2023-04-28T23:00:31.907Z,11.30
2023-04-28T23:02:59.304Z,11.30
2023-04-28T23:05:26.721Z,11.30
2023-04-28T23:07:54.576Z,11.30
2023-04-28T23:10:21.863Z,11.30
2023-04-28T23:12:49.592Z,11.20
2023-04-28T23:15:16.890Z,11.60
2023-04-28T23:17:44.179Z,11.20
2023-04-28T23:20:12.038Z,11.30
2023-04-28T23:22:39.332Z,11.30
2023-04-28T23:25:06.997Z,11.30
2023-04-28T23:27:34.273Z,11.30
2023-04-28T23:30:01.544Z,11.40
2023-04-28T23:32:29.298Z,11.40
2023-04-28T23:34:57.011Z,11.40
2023-04-28T23:37:24.300Z,11.50
2023-04-28T23:39:51.841Z,11.40
2023-04-28T23:42:19.426Z,11.50
2023-04-28T23:44:46.753Z,11.50
2023-04-28T23:47:14.550Z,11.50
2023-04-28T23:49:41.795Z,11.50
2023-04-28T23:52:09.060Z,11.50
2023-04-28T23:54:36.630Z,11.50
2023-04-28T23:57:03.961Z,11.50
2023-04-28T23:59:31.449Z,11.50
